Time;durP1;ratioP1;P1;durP2;ratioP2;P2;SDS_P1;SDS_P2;PMS_P1;PMS_P2;Temp;Humidity;BMP_temperature;BMP_pressure;BME280_temperature;BME280_humidity;BME280_pressure;Samples;Min_cycle;Max_cycle;Signal;HPM_P1;HPM_P2
2022/04/06 00:01:42;;;;;;;;;2.00;2.00;;;;;11.78;55.80;100826.56;4978312;28;45420;-86
2022/04/06 00:04:08;;;;;;;;;1.00;1.00;;;;;11.77;56.05;100822.19;5004769;28;45449;-85
2022/04/06 00:06:34;;;;;;;;;3.25;2.25;;;;;11.71;55.94;100807.28;5002350;28;45649;-85
2022/04/06 00:09:00;;;;;;;;;1.25;1.25;;;;;11.75;56.06;100811.63;4985821;28;45655;-86
2022/04/06 00:11:26;;;;;;;;;2.75;1.75;;;;;11.76;56.05;100810.78;4986055;28;45361;-85
2022/04/06 00:13:51;;;;;;;;;1.00;1.00;;;;;11.68;55.98;100799.38;4986348;28;45528;-85
2022/04/06 00:16:17;;;;;;;;;1.00;1.00;;;;;11.74;55.76;100803.75;5003497;28;46381;-85
2022/04/06 00:18:43;;;;;;;;;4.25;2.75;;;;;11.68;55.83;100796.75;4984373;28;45219;-85
2022/04/06 00:21:09;;;;;;;;;1.00;1.00;;;;;11.65;55.88;100797.66;4982717;28;45308;-85
2022/04/06 00:23:34;;;;;;;;;2.50;1.75;;;;;11.66;55.48;100812.59;4983408;28;45580;-86
2022/04/06 00:26:00;;;;;;;;;1.75;1.75;;;;;11.57;55.52;100782.75;4982819;28;47105;-85
2022/04/06 00:28:26;;;;;;;;;2.25;1.75;;;;;11.58;55.58;100792.44;4980737;28;45241;-85
2022/04/06 00:30:52;;;;;;;;;1.00;1.00;;;;;11.52;55.70;100782.81;4957069;28;45401;-85
2022/04/06 00:33:17;;;;;;;;;0.00;0.00;;;;;11.58;55.97;100795.94;4984514;28;45417;-85
2022/04/06 00:35:43;;;;;;;;;2.75;1.00;;;;;11.55;55.96;100798.63;4969571;28;48226;-84
2022/04/06 00:38:09;;;;;;;;;1.00;1.00;;;;;11.45;56.15;100779.34;4987223;28;45409;-86
2022/04/06 00:40:36;;;;;;;;;2.00;2.00;;;;;11.43;56.37;100775.81;4970614;28;45381;-85
2022/04/06 00:43:10;;;;;;;;;2.00;2.00;;;;;11.42;56.53;100782.00;4971110;28;45556;-86
2022/04/06 00:45:38;;;;;;;;;2.75;2.75;;;;;11.32;56.77;100769.75;4984752;28;45385;-85
2022/04/06 00:48:04;;;;;;;;;1.00;1.00;;;;;11.30;56.94;100773.28;4985380;28;45435;-86
2022/04/06 00:50:30;;;;;;;;;2.00;2.00;;;;;11.31;57.07;100790.88;4967953;28;45329;-84
2022/04/06 00:52:57;;;;;;;;;3.00;1.75;;;;;11.24;57.15;100776.84;4985428;28;45163;-84
2022/04/06 00:55:31;;;;;;;;;1.75;1.50;;;;;11.20;57.67;100788.25;4967063;28;47164;-85
2022/04/06 00:57:58;;;;;;;;;2.00;1.50;;;;;11.06;57.91;100764.63;4967997;28;45456;-85
2022/04/06 01:00:24;;;;;;;;;2.00;2.00;;;;;11.10;58.01;100770.78;4976143;28;45358;-85
2022/04/06 01:02:50;;;;;;;;;3.00;2.00;;;;;11.01;57.92;100763.78;4985204;28;45574;-85
2022/04/06 01:05:16;;;;;;;;;2.00;2.00;;;;;11.03;58.33;100772.56;4983132;28;46989;-86
2022/04/06 01:07:47;;;;;;;;;6.00;4.00;;;;;10.95;58.42;100756.78;4967563;28;45401;-84
2022/04/06 01:10:28;;;;;;;;;2.50;2.25;;;;;10.95;58.68;100764.69;4985263;28;45455;-85
2022/04/06 01:13:05;;;;;;;;;2.75;2.00;;;;;10.92;58.82;100759.44;4974803;28;44655;-86
2022/04/06 01:16:16;;;;;;;;;2.75;2.50;;;;;10.90;58.80;100757.69;4984829;28;45398;-86
2022/04/06 01:18:40;;;;;;;;;2.25;1.50;;;;;10.84;58.68;100755.97;4999364;28;45491;-85
2022/04/06 01:21:16;;;;;;;;;;;;;;;;;;;;;
2022/04/06 01:23:48;;;;;;;;;1.00;1.00;;;;;10.73;59.06;100753.38;5008328;28;71967;-85
2022/04/06 01:26:17;;;;;;;;;3.00;1.00;;;;;10.64;59.22;100734.09;4989191;28;46258;-85
2022/04/06 01:28:48;;;;;;;;;2.50;1.00;;;;;10.63;59.29;100738.50;4998763;28;45251;-86
2022/04/06 01:31:22;;;;;;;;;2.50;2.50;;;;;10.59;59.23;100745.53;5006199;28;45416;-86
2022/04/06 01:33:48;;;;;;;;;1.00;1.00;;;;;10.55;59.63;100740.28;5007030;28;45730;-85
2022/04/06 01:36:23;;;;;;;;;3.00;2.00;;;;;10.49;59.68;100743.81;5005362;28;48053;-86
2022/04/06 01:38:51;;;;;;;;;1.00;1.00;;;;;10.45;59.86;100741.19;5007454;28;45333;-85
2022/04/06 01:41:17;;;;;;;;;3.00;2.25;;;;;10.43;59.88;100742.97;5004983;28;45476;-86
2022/04/06 01:43:42;;;;;;;;;2.00;2.00;;;;;10.42;59.96;100738.59;5006815;28;45158;-85
2022/04/06 01:46:08;;;;;;;;;2.75;2.50;;;;;10.32;60.04;100733.34;5006123;28;45209;-86
2022/04/06 01:52:11;;;;;;;;;2.25;2.25;;;;;10.32;59.94;100737.75;4992877;28;45238;-85
2022/04/06 01:54:08;;;;;;;;;1.00;1.00;;;;;10.14;60.16;100723.72;5017088;28;44700;-83
2022/04/06 01:56:34;;;;;;;;;1.00;1.00;;;;;10.22;60.39;100722.84;5017118;28;45402;-81
2022/04/06 01:58:59;;;;;;;;;2.00;2.00;;;;;10.15;60.24;100719.31;5013799;28;45383;-85
2022/04/06 02:01:27;;;;;;;;;1.50;1.50;;;;;10.11;60.50;100718.47;5005212;28;45251;-85
2022/04/06 02:03:53;;;;;;;;;0.75;0.75;;;;;10.07;60.59;100713.22;4989441;28;45358;-84
2022/04/06 02:06:19;;;;;;;;;2.00;1.00;;;;;10.08;60.35;100729.00;5007334;28;45341;-86
2022/04/06 02:08:44;;;;;;;;;1.00;1.00;;;;;10.02;60.42;100714.97;5003069;28;45342;-86
2022/04/06 02:11:10;;;;;;;;;2.25;2.25;;;;;10.04;60.53;100721.09;5001060;28;45253;-85
2022/04/06 02:13:36;;;;;;;;;3.75;1.00;;;;;10.04;60.68;100724.59;4989535;28;45271;-85
2022/04/06 02:16:02;;;;;;;;;0.25;0.25;;;;;9.94;60.79;100710.63;4988193;28;48150;-85
2022/04/06 02:18:27;;;;;;;;;2.25;2.00;;;;;10.04;60.82;100726.38;4987359;28;46065;-85
2022/04/06 02:20:53;;;;;;;;;1.25;1.25;;;;;10.04;60.89;100718.47;5020756;28;45385;-85
2022/04/06 02:23:18;;;;;;;;;1.75;1.75;;;;;10.09;60.60;100714.09;5005172;28;45469;-85
2022/04/06 02:25:43;;;;;;;;;1.00;0.00;;;;;10.12;60.59;100711.44;4987453;28;46003;-85
2022/04/06 02:28:09;;;;;;;;;0.00;0.00;;;;;10.08;60.45;100691.31;5014167;28;45626;-85
2022/04/06 02:30:35;;;;;;;;;3.00;3.00;;;;;10.15;60.51;100700.91;5003899;28;45506;-86
2022/04/06 02:33:00;;;;;;;;;2.25;1.00;;;;;10.13;60.52;100692.13;5007555;28;45298;-87
2022/04/06 02:35:26;;;;;;;;;2.50;0.75;;;;;10.10;60.60;100685.16;5005959;28;46313;-86
2022/04/06 02:37:51;;;;;;;;;2.50;2.00;;;;;10.13;60.36;100682.53;5007233;28;45443;-86
2022/04/06 02:40:17;;;;;;;;;0.75;0.75;;;;;10.23;60.47;100693.00;5006323;28;45313;-86
2022/04/06 02:42:44;;;;;;;;;0.25;0.25;;;;;10.22;60.30;100692.13;5004320;28;45244;-86
2022/04/06 02:45:13;;;;;;;;;2.50;1.00;;;;;10.19;60.34;100686.00;5005805;28;45268;-85
2022/04/06 02:47:38;;;;;;;;;1.00;1.00;;;;;10.24;60.51;100697.41;5006457;28;45357;-85
2022/04/06 02:50:05;;;;;;;;;2.50;2.50;;;;;10.22;60.40;100683.38;5020837;28;45261;-86
2022/04/06 02:52:31;;;;;;;;;0.00;0.00;;;;;10.13;60.60;100676.34;4989438;28;45494;-86
2022/04/06 02:54:57;;;;;;;;;2.00;0.25;;;;;10.24;60.46;100687.75;5005461;28;46312;-86
2022/04/06 02:57:22;;;;;;;;;2.00;1.00;;;;;10.24;60.49;100685.13;5006175;28;45276;-86
2022/04/06 02:59:48;;;;;;;;;1.00;1.00;;;;;10.15;60.46;100670.22;4993448;28;45380;-86
2022/04/06 03:02:13;;;;;;;;;1.00;0.25;;;;;10.18;60.46;100663.19;5021940;28;45519;-85
2022/04/06 03:04:39;;;;;;;;;0.50;0.50;;;;;10.29;60.21;100672.84;4987173;28;47082;-86
2022/04/06 03:07:04;;;;;;;;;1.00;1.00;;;;;10.22;60.27;100660.56;5006759;28;45163;-87
2022/04/06 03:09:30;;;;;;;;;3.00;1.00;;;;;10.24;60.25;100663.19;4987698;28;45315;-86
2022/04/06 03:11:55;;;;;;;;;0.00;0.00;;;;;10.27;60.19;100665.81;5000369;28;45301;-85
2022/04/06 03:14:21;;;;;;;;;1.00;1.00;;;;;10.26;60.12;100656.16;4987387;28;48052;-86
2022/04/06 03:16:46;;;;;;;;;0.25;0.25;;;;;10.29;60.17;100657.06;4988675;28;45319;-87
2022/04/06 03:19:12;;;;;;;;;1.50;1.00;;;;;10.36;60.17;100658.78;5005022;28;45420;-85
2022/04/06 03:21:37;;;;;;;;;0.50;0.50;;;;;10.30;60.08;100644.78;4989239;28;45472;-85
2022/04/06 03:24:03;;;;;;;;;1.25;1.25;;;;;10.34;60.07;100639.50;4977038;28;49830;-85
2022/04/06 03:26:29;;;;;;;;;0.75;0.75;;;;;10.37;60.37;100643.84;5007634;28;45415;-85
2022/04/06 03:28:54;;;;;;;;;0.00;0.00;;;;;10.39;60.15;100639.47;4984116;28;45432;-85
2022/04/06 03:31:20;;;;;;;;;0.25;0.25;;;;;10.42;59.96;100646.47;4989979;28;45985;-85
2022/04/06 03:33:45;;;;;;;;;4.50;4.50;;;;;10.40;59.95;100637.69;5019872;28;47126;-86
2022/04/06 03:36:11;;;;;;;;;1.00;1.00;;;;;10.45;60.17;100636.81;5021530;28;45420;-86
2022/04/06 03:38:55;;;;;;;;;0.00;0.00;;;;;10.38;59.98;100627.19;4987301;28;45270;-85
2022/04/06 03:41:20;;;;;;;;;1.00;1.00;;;;;10.43;60.12;100627.19;5006707;28;45333;-84
2022/04/06 03:43:46;;;;;;;;;1.00;0.00;;;;;10.47;59.99;100635.03;4984237;28;48091;-86
2022/04/06 03:46:14;;;;;;;;;1.00;1.00;;;;;10.46;59.81;100629.81;4983942;28;45448;-85
2022/04/06 03:48:42;;;;;;;;;0.75;0.75;;;;;10.47;60.00;100632.41;4997267;28;45251;-85
2022/04/06 03:51:10;;;;;;;;;0.00;0.00;;;;;10.43;59.71;100620.16;4989733;28;45882;-86
2022/04/06 03:53:36;;;;;;;;;3.00;3.00;;;;;10.41;60.00;100619.28;5005075;28;47327;-85
2022/04/06 03:56:04;;;;;;;;;0.00;0.00;;;;;10.50;59.80;100634.16;4989313;28;45455;-85
2022/04/06 03:58:30;;;;;;;;;0.00;0.00;;;;;10.42;59.98;100618.38;5006452;28;45155;-87
2022/04/06 04:00:56;;;;;;;;;0.00;0.00;;;;;10.52;59.76;100629.75;5023138;28;45246;-87
2022/04/06 04:03:22;;;;;;;;;1.00;1.00;;;;;10.51;59.94;100628.03;4988754;28;47059;-86
2022/04/06 04:05:47;;;;;;;;;0.25;0.25;;;;;10.51;59.85;100630.66;5007718;28;45511;-85
2022/04/06 04:08:13;;;;;;;;;0.00;0.00;;;;;10.42;59.88;100615.75;4985767;28;45400;-85
2022/04/06 04:10:38;;;;;;;;;1.50;1.00;;;;;10.52;59.88;100630.63;5005551;28;45488;-84
2022/04/06 04:13:04;;;;;;;;;2.00;1.00;;;;;10.49;59.65;100619.25;5007935;28;45394;-85
2022/04/06 04:15:31;;;;;;;;;0.00;0.00;;;;;10.52;59.95;100625.34;4994936;28;45393;-87
2022/04/06 04:17:57;;;;;;;;;1.00;1.00;;;;;10.47;59.89;100613.13;4985673;28;45523;-85
2022/04/06 04:20:23;;;;;;;;;0.75;0.75;;;;;10.52;59.79;100627.13;4986022;28;44974;-86
2022/04/06 04:22:49;;;;;;;;;0.00;0.00;;;;;10.50;60.00;100618.34;4967946;28;46030;-85
2022/04/06 04:25:17;;;;;;;;;3.25;3.00;;;;;10.46;59.74;100614.88;4987705;28;45239;-85
2022/04/06 04:27:42;;;;;;;;;1.00;0.00;;;;;10.48;59.90;100620.16;4972996;28;45492;-84
2022/04/06 04:30:10;;;;;;;;;1.00;1.00;;;;;10.46;59.78;100617.50;4969676;28;45911;-85
2022/04/06 04:32:35;;;;;;;;;1.50;0.25;;;;;10.45;60.34;100618.41;4965154;28;46350;-86
2022/04/06 04:35:06;;;;;;;;;4.50;3.00;;;;;10.46;59.99;100604.34;4983855;28;45534;-86
2022/04/06 04:37:32;;;;;;;;;1.00;1.00;;;;;10.38;59.91;100601.75;4985769;28;45464;-85
2022/04/06 04:39:58;;;;;;;;;0.00;0.00;;;;;10.43;59.74;100599.09;4986782;28;45468;-86
2022/04/06 04:42:24;;;;;;;;;0.75;0.75;;;;;10.45;59.60;100606.97;4968854;28;45487;-84
2022/04/06 04:44:49;;;;;;;;;1.50;0.00;;;;;10.47;59.89;100607.84;4986243;28;45415;-84
2022/04/06 04:47:16;;;;;;;;;4.00;4.00;;;;;10.47;59.78;100607.84;4965558;28;45464;-85
2022/04/06 04:49:42;;;;;;;;;0.75;0.00;;;;;10.47;59.76;100585.03;4973589;28;45338;-85
2022/04/06 04:52:08;;;;;;;;;0.50;0.50;;;;;10.49;59.86;100585.03;4985172;28;47451;-85
2022/04/06 04:54:33;;;;;;;;;1.00;1.00;;;;;10.47;59.62;100571.00;4990289;28;45258;-85
2022/04/06 04:56:59;;;;;;;;;0.00;0.00;;;;;10.46;59.48;100562.25;4974535;28;45258;-86
2022/04/06 04:59:25;;;;;;;;;2.25;0.25;;;;;10.56;59.34;100571.81;4986580;28;45347;-86
2022/04/06 05:01:53;;;;;;;;;0.00;0.00;;;;;10.54;59.34;100563.06;4986623;28;45218;-86
2022/04/06 05:04:19;;;;;;;;;4.75;3.00;;;;;10.53;59.43;100553.44;4987427;28;45324;-87
2022/04/06 05:06:45;;;;;;;;;0.75;0.00;;;;;10.65;59.02;100584.06;4990793;28;45420;-85
2022/04/06 05:09:10;;;;;;;;;1.25;1.25;;;;;10.63;59.13;100580.53;4990793;28;44865;-86
2022/04/06 05:11:36;;;;;;;;;1.00;0.75;;;;;10.68;59.01;100583.16;4974732;28;47017;-86
2022/04/06 05:14:01;;;;;;;;;1.00;1.00;;;;;10.60;59.17;100567.41;4977857;28;45314;-86
2022/04/06 05:16:27;;;;;;;;;0.75;0.75;;;;;10.67;59.04;100577.03;4993426;28;45281;-86
2022/04/06 05:18:54;;;;;;;;;0.50;0.50;;;;;10.68;59.13;100578.75;4987194;28;45255;-86
2022/04/06 05:21:20;;;;;;;;;2.50;1.00;;;;;10.67;58.99;100573.53;5008425;28;46731;-86
2022/04/06 05:23:49;;;;;;;;;2.00;2.00;;;;;10.65;59.03;100575.28;4995391;28;45422;-87
2022/04/06 05:26:15;;;;;;;;;0.00;0.00;;;;;10.55;59.02;100564.78;4996494;28;44765;-82
2022/04/06 05:28:40;;;;;;;;;0.50;0.50;;;;;10.65;59.09;100585.81;5019982;28;44817;-82
2022/04/06 05:31:06;;;;;;;;;1.00;1.00;;;;;10.65;59.08;100591.94;5010312;28;46912;-84
2022/04/06 05:33:32;;;;;;;;;1.25;0.00;;;;;10.54;59.22;100573.59;5003607;28;45294;-84
2022/04/06 05:35:57;;;;;;;;;1.00;1.00;;;;;10.66;59.31;100579.66;5004171;28;44597;-83
2022/04/06 05:38:23;;;;;;;;;1.00;1.00;;;;;10.57;59.10;100573.56;5020722;28;45056;-83
2022/04/06 05:40:48;;;;;;;;;1.25;1.00;;;;;10.57;59.32;100589.34;5022717;28;45303;-83
2022/04/06 05:43:14;;;;;;;;;0.00;0.00;;;;;10.54;59.35;100573.59;5020128;28;45434;-85
2022/04/06 05:45:40;;;;;;;;;1.50;0.00;;;;;10.59;59.62;100589.38;5007186;28;44691;-87
2022/04/06 05:48:09;;;;;;;;;2.25;2.00;;;;;10.52;59.67;100571.84;5006091;28;44756;-86
2022/04/06 05:50:35;;;;;;;;;1.00;0.75;;;;;10.56;59.85;100577.09;5005895;28;47206;-86
2022/04/06 05:53:00;;;;;;;;;4.00;2.00;;;;;10.50;60.00;100574.47;5022714;28;44731;-86
2022/04/06 05:55:26;;;;;;;;;2.00;2.00;;;;;10.49;59.98;100563.97;5025543;28;45285;-87
2022/04/06 05:57:51;;;;;;;;;3.00;2.00;;;;;10.47;60.12;100574.50;5003636;28;45437;-84
2022/04/06 06:00:17;;;;;;;;;3.00;3.00;;;;;10.45;60.21;100573.66;4983427;28;46920;-86
2022/04/06 06:02:44;;;;;;;;;4.00;3.00;;;;;10.41;60.22;100571.91;4983943;28;46103;-83
2022/04/06 06:05:10;;;;;;;;;3.00;1.00;;;;;10.33;60.42;100566.69;5000841;28;45260;-86
2022/04/06 06:07:36;;;;;;;;;2.00;2.00;;;;;10.36;60.44;100584.22;4982959;28;45239;-85
2022/04/06 06:10:04;;;;;;;;;3.25;3.25;;;;;10.35;60.64;100587.75;4988357;28;46293;-84
2022/04/06 06:12:31;;;;;;;;;3.00;3.00;;;;;10.25;60.96;100571.09;5003389;28;45467;-85
2022/04/06 06:14:56;;;;;;;;;2.00;2.00;;;;;10.31;61.14;100581.59;5005680;28;45344;-84
2022/04/06 06:17:25;;;;;;;;;4.50;2.50;;;;;10.23;61.14;100564.09;4999475;28;45868;-85
2022/04/06 06:19:50;;;;;;;;;2.50;2.00;;;;;10.20;61.38;100572.88;4987797;28;47431;-84
2022/04/06 06:22:16;;;;;;;;;2.25;2.25;;;;;10.22;61.23;100568.47;5007460;28;45542;-83
2022/04/06 06:24:42;;;;;;;;;1.75;1.75;;;;;10.18;61.43;100563.22;4988478;28;45353;-86
2022/04/06 06:27:46;;;;;;;;;4.75;1.75;;;;;10.19;61.36;100573.75;4987942;28;45463;-89
2022/04/06 06:30:14;;;;;;;;;2.75;2.75;;;;;10.16;61.61;100545.72;4987873;28;48115;-88
2022/04/06 06:32:40;;;;;;;;;4.50;2.75;;;;;10.20;61.81;100558.84;4972695;28;46142;-90
2022/04/06 06:35:08;;;;;;;;;4.00;3.75;;;;;10.19;61.47;100559.75;4985316;28;44857;-90
2022/04/06 06:37:34;;;;;;;;;1.75;1.75;;;;;10.27;61.63;100573.72;5010864;28;45463;-89
2022/04/06 06:40:00;;;;;;;;;2.00;2.00;;;;;10.30;61.59;100571.09;5001443;28;47992;-86
2022/04/06 06:42:26;;;;;;;;;2.00;2.00;;;;;10.31;61.41;100555.28;5003611;28;45257;-84
2022/04/06 06:44:51;;;;;;;;;1.50;1.50;;;;;10.29;61.37;100551.81;5003135;28;45277;-86
2022/04/06 06:47:17;;;;;;;;;1.50;1.00;;;;;10.36;61.27;100564.03;4994949;28;45271;-87
2022/04/06 06:49:46;;;;;;;;;2.00;2.00;;;;;10.35;61.36;100557.03;5003898;28;45416;-86
2022/04/06 06:52:14;;;;;;;;;2.50;1.75;;;;;10.36;61.28;100557.91;4985960;28;45367;-86
2022/04/06 06:54:39;;;;;;;;;3.25;2.00;;;;;10.44;61.41;100552.59;4983922;28;45190;-86
2022/04/06 06:57:05;;;;;;;;;3.25;1.25;;;;;10.46;61.16;100553.47;4990453;28;45291;-86
2022/04/06 06:59:31;;;;;;;;;3.25;2.00;;;;;10.45;60.90;100546.44;4999207;28;48802;-87
2022/04/06 07:01:56;;;;;;;;;6.00;5.00;;;;;10.57;60.85;100562.16;5005473;28;45308;-87
2022/04/06 07:04:25;;;;;;;;;2.75;2.00;;;;;10.52;60.55;100553.44;5005312;28;45325;-90
2022/04/06 07:06:51;;;;;;;;;2.50;1.00;;;;;10.57;60.65;100546.38;4986140;28;45353;-86
2022/04/06 07:09:17;;;;;;;;;1.50;1.50;;;;;10.62;60.60;100547.22;5004596;28;45472;-84
2022/04/06 07:11:42;;;;;;;;;2.25;2.00;;;;;10.71;60.59;100556.81;4999425;28;45265;-87
2022/04/06 07:14:08;;;;;;;;;1.25;1.25;;;;;10.72;60.50;100545.38;4990025;28;45326;-85
2022/04/06 07:16:34;;;;;;;;;2.50;2.50;;;;;10.81;60.58;100553.22;4991201;28;45295;-88
2022/04/06 07:18:59;;;;;;;;;1.50;1.50;;;;;10.85;60.33;100554.94;5005176;28;47298;-87
2022/04/06 07:21:25;;;;;;;;;2.00;2.00;;;;;10.80;60.28;100544.44;4990885;28;45794;-87
2022/04/06 07:23:51;;;;;;;;;2.75;0.50;;;;;10.89;60.29;100556.66;4986503;28;45203;-86
2022/04/06 07:26:17;;;;;;;;;3.00;3.00;;;;;10.86;59.89;100540.03;4988393;28;45435;-89
2022/04/06 07:28:49;;;;;;;;;5.00;2.00;;;;;10.98;59.97;100553.06;5004526;28;46149;-86
2022/04/06 07:31:14;;;;;;;;;3.50;3.00;;;;;10.96;59.99;100536.41;5007162;28;45285;-87
2022/04/06 07:33:40;;;;;;;;;2.00;2.00;;;;;10.99;59.75;100531.13;4990052;28;45182;-89
2022/04/06 07:36:11;;;;;;;;;2.00;2.00;;;;;11.06;59.69;100537.19;4994939;28;45330;-93
2022/04/06 07:38:36;;;;;;;;;2.75;1.00;;;;;11.11;59.32;100552.06;5013915;28;47125;-89
2022/04/06 07:41:02;;;;;;;;;1.00;1.00;;;;;11.13;59.28;100542.41;5002643;28;44718;-88
2022/04/06 07:43:28;;;;;;;;;3.50;3.50;;;;;11.13;59.23;100545.03;5000786;28;44901;-88
2022/04/06 07:45:53;;;;;;;;;4.00;3.00;;;;;11.20;59.23;100541.47;5011096;28;45202;-86
2022/04/06 07:48:28;;;;;;;;;2.75;2.75;;;;;11.25;59.17;100544.94;5003285;28;45368;-87
2022/04/06 07:50:56;;;;;;;;;1.00;1.00;;;;;11.30;59.14;100541.38;5003421;28;45124;-90
2022/04/06 07:53:51;;;;;;;;;2.00;2.00;;;;;11.33;59.11;100536.94;4989683;28;45260;-89
2022/04/06 07:56:17;;;;;;;;;1.25;0.00;;;;;11.33;58.68;100531.66;5014061;28;45498;-89
2022/04/06 07:58:43;;;;;;;;;1.00;1.00;;;;;11.32;58.63;100523.78;4989502;28;46687;-91
2022/04/06 08:01:08;;;;;;;;;0.00;0.00;;;;;11.43;58.63;100533.31;4991067;28;44901;-92
2022/04/06 08:03:36;;;;;;;;;2.00;2.00;;;;;11.41;58.52;100524.56;4987616;28;45412;-91
2022/04/06 08:06:05;;;;;;;;;4.00;4.00;;;;;11.46;58.76;100522.72;4989203;28;45563;-89
2022/04/06 08:08:30;;;;;;;;;1.00;1.00;;;;;11.50;58.43;100517.44;5018233;28;48129;-89
2022/04/06 08:11:08;;;;;;;;;1.00;1.00;;;;;11.62;58.16;100518.16;4988262;28;45191;-89
2022/04/06 08:13:34;;;;;;;;;1.00;1.00;;;;;11.69;57.98;100525.13;4985385;28;45434;-89
2022/04/06 08:15:59;;;;;;;;;2.00;2.00;;;;;11.72;57.77;100510.16;5004753;28;45499;-89
2022/04/06 08:18:54;;;;;;;;;2.75;2.00;;;;;11.76;57.97;100509.22;4985349;28;47168;-92
2022/04/06 08:21:26;;;;;;;;;2.00;2.00;;;;;11.82;57.65;100510.03;4983032;28;45423;-89
2022/04/06 08:23:52;;;;;;;;;1.00;1.00;;;;;11.78;57.42;100510.06;5013107;28;45510;-92
2022/04/06 08:26:20;;;;;;;;;3.00;1.50;;;;;11.78;57.31;100505.66;4982720;28;45577;-88
2022/04/06 08:29:06;;;;;;;;;3.00;1.25;;;;;11.93;57.24;100509.06;4963089;28;46673;-87
2022/04/06 08:32:14;;;;;;;;;1.00;1.00;;;;;11.87;56.96;100497.69;4979645;28;45553;-87
2022/04/06 08:34:40;;;;;;;;;2.25;0.50;;;;;11.96;57.05;100493.19;4963027;28;45374;-87
2022/04/06 08:37:08;;;;;;;;;3.00;3.00;;;;;12.05;56.94;100504.47;4970782;28;45545;-87
2022/04/06 08:39:33;;;;;;;;;0.00;0.00;;;;;12.10;56.64;100505.28;4965803;28;46951;-88
2022/04/06 08:42:00;;;;;;;;;2.00;2.00;;;;;12.13;56.44;100499.06;4953803;28;45464;-89
2022/04/06 08:44:36;;;;;;;;;;;;;;;;;;;;;
2022/04/06 09:01:47;;;;;;;;;2.00;2.00;;;;;12.44;55.50;100493.38;4939908;28;45458;-89
2022/04/06 09:05:13;;;;;;;;;1.25;1.25;;;;;12.49;55.49;100489.75;4974368;28;47292;-89
2022/04/06 09:07:20;;;;;;;;;1.50;1.50;;;;;12.55;55.41;100481.72;4981593;28;45164;-88
2022/04/06 09:10:14;;;;;;;;;0.75;0.75;;;;;12.63;55.08;100492.16;4986134;28;45903;-91
2022/04/06 09:13:21;;;;;;;;;2.50;0.25;;;;;12.70;55.19;100493.81;4969966;28;45344;-90
2022/04/06 09:16:15;;;;;;;;;1.00;1.00;;;;;12.73;55.00;100477.06;4968739;28;46787;-86
2022/04/06 09:18:46;;;;;;;;;1.00;1.00;;;;;12.83;54.72;100489.22;4978623;28;46071;-87
2022/04/06 09:21:19;;;;;;;;;1.00;1.00;;;;;12.89;54.49;100488.22;4977529;28;45290;-86
2022/04/06 09:23:48;;;;;;;;;1.00;1.00;;;;;12.94;54.68;100478.47;4980428;28;45223;-92
2022/04/06 09:26:59;;;;;;;;;1.00;1.00;;;;;12.93;53.68;100479.34;4981805;28;46607;-88
2022/04/06 09:29:35;;;;;;;;;0.25;0.25;;;;;13.00;53.71;100480.97;4974232;28;45433;-88
2022/04/06 09:32:36;;;;;;;;;3.75;2.00;;;;;13.02;53.54;100484.47;4978708;28;45447;-90
2022/04/06 09:36:03;;;;;;;;;;;;;;;;;;;;;
2022/04/06 09:39:34;;;;;;;;;;;;;;;;;;;;;
2022/04/06 09:42:38;;;;;;;;;;;;;;;;;;;;;
2022/04/06 09:55:28;;;;;;;;;2.00;1.00;;;;;13.38;52.63;100482.94;4776540;29;44860;-90
2022/04/06 09:58:03;;;;;;;;;2.00;2.00;;;;;13.39;51.84;100482.03;4779012;29;44948;-89
2022/04/06 10:00:53;;;;;;;;;;;;;;;;;;;;;
2022/04/06 10:03:31;;;;;;;;;1.75;0.25;;;;;13.27;52.41;100476.97;4864650;29;75538;-88
2022/04/06 10:05:58;;;;;;;;;2.00;2.00;;;;;13.34;52.35;100475.06;4873817;29;45389;-87
2022/04/06 10:08:25;;;;;;;;;2.00;2.00;;;;;13.29;52.60;100475.19;4895216;28;45543;-86
2022/04/06 10:10:55;;;;;;;;;3.50;3.50;;;;;13.32;51.90;100472.47;4962616;28;45381;-86
2022/04/06 10:13:21;;;;;;;;;1.00;1.00;;;;;13.25;52.22;100457.59;4979293;28;45315;-86
2022/04/06 10:15:49;;;;;;;;;1.00;1.00;;;;;13.32;51.69;100463.69;4996253;28;45561;-86
2022/04/06 10:18:16;;;;;;;;;1.00;1.00;;;;;13.36;51.86;100466.22;4996919;28;45785;-87
2022/04/06 10:21:29;;;;;;;;;3.00;1.50;;;;;13.35;52.00;100453.91;4987046;28;45507;-87
2022/04/06 10:24:36;;;;;;;;;2.00;1.00;;;;;13.42;51.86;100455.53;4999831;28;47368;-89
2022/04/06 10:27:46;;;;;;;;;1.00;1.00;;;;;13.49;51.65;100452.75;5011716;28;45534;-88
2022/04/06 10:33:29;;;;;;;;;2.00;2.00;;;;;13.54;51.87;100441.19;5022569;28;45617;-91
2022/04/06 10:43:01;;;;;;;;;2.25;2.25;;;;;13.61;51.59;100441.94;5013872;28;45560;-89
2022/04/06 10:45:49;;;;;;;;;2.00;2.00;;;;;13.58;51.51;100432.28;5009286;28;45459;-92
2022/04/06 10:48:21;;;;;;;;;2.00;2.00;;;;;13.53;52.21;100438.59;5004496;28;46717;-91
2022/04/06 10:50:54;;;;;;;;;1.00;0.00;;;;;13.39;51.92;100410.66;5010609;28;45256;-92
2022/04/06 10:53:20;;;;;;;;;2.75;2.00;;;;;13.40;52.15;100422.09;5021668;28;45453;-92
2022/04/06 10:56:06;;;;;;;;;4.00;3.00;;;;;13.39;52.54;100418.59;5010079;28;45583;-91
2022/04/06 10:58:54;;;;;;;;;5.25;4.00;;;;;13.39;52.62;100409.75;5017304;28;47668;-92
2022/04/06 11:01:29;;;;;;;;;6.00;6.00;;;;;13.39;52.77;100400.06;5032495;28;44810;-93
2022/04/06 11:04:04;;;;;;;;;4.50;3.75;;;;;13.51;52.83;100393.66;5006881;28;45627;-91
2022/04/06 11:06:45;;;;;;;;;2.50;2.50;;;;;13.62;53.06;100399.56;5006787;28;45454;-90
2022/04/06 11:12:24;;;;;;;;;4.00;4.00;;;;;13.82;52.71;100390.31;5035689;28;45448;-95
2022/04/06 11:15:09;;;;;;;;;3.00;3.00;;;;;13.90;52.83;100385.75;5006726;28;45363;-93
2022/04/06 11:17:44;;;;;;;;;5.75;4.25;;;;;13.90;52.40;100383.97;5028772;28;45853;-94
2022/04/06 11:20:09;;;;;;;;;4.00;3.50;;;;;13.86;52.51;100381.41;5017924;28;47630;-95
2022/04/06 11:23:06;;;;;;;;;3.00;3.00;;;;;13.79;52.55;100375.41;5021782;28;45381;-93
2022/04/06 11:25:56;;;;;;;;;3.50;3.50;;;;;13.76;52.71;100358.72;5014356;28;45206;-92
2022/04/06 11:29:05;;;;;;;;;7.00;7.00;;;;;13.83;52.94;100357.66;5028068;28;45498;-92
2022/04/06 11:31:52;;;;;;;;;3.25;3.25;;;;;13.84;52.80;100351.47;4994019;28;46310;-91
2022/04/06 11:41:44;;;;;;;;;5.25;4.50;;;;;14.02;52.82;100310.47;4860247;29;45438;-87
2022/04/06 11:44:21;;;;;;;;;3.00;3.00;;;;;14.12;52.32;100315.47;4927892;28;46790;-87
2022/04/06 11:47:07;;;;;;;;;2.25;1.25;;;;;14.12;52.31;100293.44;4962645;28;45178;-90
2022/04/06 11:52:56;;;;;;;;;4.50;4.00;;;;;14.60;51.73;100298.38;4972527;28;44838;-88
2022/04/06 11:55:53;;;;;;;;;4.50;3.00;;;;;14.87;51.16;100304.69;5000695;28;45597;-91
2022/04/06 11:58:39;;;;;;;;;4.00;4.00;;;;;15.16;51.11;100303.84;4995120;28;45550;-88
2022/04/06 12:01:14;;;;;;;;;5.00;5.00;;;;;15.34;49.72;100296.22;5006494;28;45208;-90
2022/04/06 12:03:47;;;;;;;;;6.00;4.25;;;;;15.40;49.13;100290.75;5012171;28;46000;-93
2022/04/06 12:07:07;;;;;;;;;;;;;;;;;;;;;
2022/04/06 12:09:27;;;;;;;;;4.00;3.50;;;;;15.53;48.53;100284.16;5019463;28;45543;-91
2022/04/06 12:12:18;;;;;;;;;4.50;4.50;;;;;15.56;48.43;100276.09;5019419;28;45337;-91
2022/04/06 12:18:54;;;;;;;;;6.00;5.50;;;;;15.45;48.20;100310.06;4996751;28;45563;-94
2022/04/06 12:25:34;;;;;;;;;3.00;3.00;;;;;15.14;48.21;100278.28;4987475;28;45536;-88
2022/04/06 12:28:57;;;;;;;;;4.25;4.25;;;;;14.98;48.28;100296.41;4980246;28;45501;-88
2022/04/06 12:34:46;;;;;;;;;4.25;3.25;;;;;14.64;49.67;100270.88;4970509;28;45469;-87
2022/04/06 12:41:38;;;;;;;;;5.00;4.25;;;;;14.66;50.02;100269.06;4898371;28;45261;-88
2022/04/06 12:51:50;;;;;;;;;;;;;;;;;;;;;
2022/04/06 12:56:02;;;;;;;;;;;;;;;;;;;;;
2022/04/06 12:58:22;;;;;;;;;4.00;4.00;;;;;15.18;49.15;100230.41;4905408;28;45497;-88
2022/04/06 13:04:37;;;;;;;;;7.00;3.50;;;;;15.36;47.83;100207.75;4929771;28;45607;-89
2022/04/06 13:07:07;;;;;;;;;5.00;5.00;;;;;15.44;47.77;100202.19;4924281;28;45828;-88
2022/04/06 13:09:56;;;;;;;;;3.75;3.75;;;;;15.63;47.76;100199.78;4921471;28;47157;-89
2022/04/06 13:13:01;;;;;;;;;2.25;2.00;;;;;15.71;47.06;100205.75;4940555;28;45386;-88
2022/04/06 13:15:38;;;;;;;;;;;;;;;;;;;;;
2022/04/06 13:19:15;;;;;;;;;3.75;2.00;;;;;15.87;47.06;100191.03;4999313;28;71998;-91
2022/04/06 13:21:45;;;;;;;;;1.00;1.00;;;;;16.10;46.21;100194.69;5009597;28;45583;-88